createdAt,value
2018-03-15T00:01:49.434Z,29.27
2018-03-15T00:04:18.521Z,22.93
2018-03-15T00:06:47.795Z,22.70
2018-03-15T00:09:16.790Z,24.47
2018-03-15T00:11:46.122Z,32.23
2018-03-15T00:14:15.225Z,25.17
2018-03-15T00:16:44.215Z,30.00
2018-03-15T00:19:13.215Z,27.90
2018-03-15T00:21:42.335Z,25.93
2018-03-15T00:24:11.299Z,21.70
2018-03-15T00:26:41.965Z,29.90
2018-03-15T00:29:10.949Z,29.93
2018-03-15T00:31:39.974Z,36.63
2018-03-15T00:34:10.691Z,21.20
2018-03-15T00:36:40.462Z,23.77
2018-03-15T00:39:09.740Z,22.70
2018-03-15T00:41:39.109Z,20.93
2018-03-15T00:44:08.067Z,27.87
2018-03-15T00:46:37.063Z,19.70
2018-03-15T00:49:06.084Z,22.20
2018-03-15T00:51:35.935Z,23.27
2018-03-15T00:54:04.964Z,21.27
2018-03-15T00:56:34.163Z,16.83
2018-03-15T00:59:03.990Z,28.27
2018-03-15T01:01:32.935Z,32.60
2018-03-15T01:04:01.671Z,20.30
2018-03-15T01:06:30.900Z,22.30
2018-03-15T01:08:59.910Z,21.93
2018-03-15T01:11:29.060Z,21.93
2018-03-15T01:13:58.413Z,26.60
2018-03-15T01:16:27.687Z,30.13
2018-03-15T01:18:56.719Z,18.47
2018-03-15T01:21:25.851Z,17.30
2018-03-15T01:23:55.701Z,20.80
2018-03-15T01:26:25.476Z,27.17
2018-03-15T01:28:55.393Z,25.47
2018-03-15T01:31:24.548Z,23.17
2018-03-15T01:33:53.962Z,20.40
2018-03-15T01:36:23.191Z,34.53
2018-03-15T01:38:52.607Z,25.43
2018-03-15T01:41:21.498Z,20.73
2018-03-15T01:43:50.602Z,23.53
2018-03-15T01:46:20.711Z,25.10
2018-03-15T01:48:49.983Z,28.03
2018-03-15T01:51:19.220Z,22.73
2018-03-15T01:53:48.211Z,21.00
2018-03-15T01:56:18.227Z,18.67
2018-03-15T01:58:47.295Z,32.83
2018-03-15T02:01:16.500Z,22.40
2018-03-15T02:03:46.507Z,20.23
2018-03-15T02:06:15.602Z,29.97
2018-03-15T02:08:44.839Z,35.00
2018-03-15T02:11:13.931Z,20.43
2018-03-15T02:13:42.999Z,20.60
2018-03-15T02:16:12.473Z,27.80
2018-03-15T02:18:42.347Z,25.43
2018-03-15T02:21:12.063Z,22.63
2018-03-15T02:23:41.194Z,24.00
2018-03-15T02:26:10.210Z,23.47
2018-03-15T02:28:39.395Z,25.50
2018-03-15T02:31:09.240Z,26.50
2018-03-15T02:33:38.607Z,22.60
2018-03-15T02:36:07.467Z,27.23
2018-03-15T02:38:36.531Z,22.90
2018-03-15T02:41:06.544Z,32.17
2018-03-15T02:43:35.776Z,21.33
2018-03-15T02:46:05.530Z,28.20
2018-03-15T02:48:34.443Z,22.67
2018-03-15T02:51:03.480Z,28.90
2018-03-15T02:53:33.465Z,33.33
2018-03-15T02:56:03.321Z,29.40
2018-03-15T02:58:32.445Z,26.23
2018-03-15T03:01:01.355Z,21.97
2018-03-15T03:03:30.431Z,33.33
2018-03-15T03:05:59.343Z,23.73
2018-03-15T03:08:29.375Z,27.97
2018-03-15T03:10:59.186Z,25.90
2018-03-15T03:13:28.291Z,30.10
2018-03-15T03:15:57.679Z,27.90
2018-03-15T03:18:26.877Z,29.13
2018-03-15T03:20:56.327Z,26.73
2018-03-15T03:23:25.603Z,26.93
2018-03-15T03:25:54.598Z,32.60
2018-03-15T03:28:23.786Z,25.07
2018-03-15T03:30:52.893Z,27.30
2018-03-15T03:33:21.918Z,30.67
2018-03-15T03:35:51.049Z,26.10
2018-03-15T03:38:20.896Z,27.67
2018-03-15T03:40:49.991Z,27.97
2018-03-15T03:43:19.119Z,29.87
2018-03-15T03:45:48.115Z,28.07
2018-03-15T03:48:17.287Z,20.67
2018-03-15T03:50:47.288Z,28.70
2018-03-15T03:53:17.260Z,33.13
2018-03-15T03:55:46.384Z,24.57
2018-03-15T03:58:16.155Z,25.90
2018-03-15T04:00:45.335Z,26.33
2018-03-15T04:03:15.333Z,35.27
2018-03-15T04:05:44.502Z,37.33
2018-03-15T04:08:13.648Z,34.73
2018-03-15T04:10:42.950Z,19.53
2018-03-15T04:13:11.942Z,32.53
2018-03-15T04:15:40.963Z,22.03
2018-03-15T04:18:10.340Z,23.27
2018-03-15T04:20:39.334Z,26.43
2018-03-15T04:23:08.432Z,28.00
2018-03-15T04:25:37.527Z,29.70
2018-03-15T04:28:08.267Z,28.40
2018-03-15T04:30:37.391Z,24.80
2018-03-15T04:33:06.256Z,28.30
2018-03-15T04:35:35.484Z,32.57
2018-03-15T04:38:04.374Z,29.60
2018-03-15T04:40:33.474Z,25.90
2018-03-15T04:43:02.578Z,28.73
2018-03-15T04:45:31.570Z,35.73
2018-03-15T04:48:00.630Z,23.70
2018-03-15T04:50:29.555Z,33.87
2018-03-15T04:52:58.688Z,32.30
2018-03-15T04:55:28.536Z,27.80
2018-03-15T04:57:58.243Z,24.77
2018-03-15T05:00:27.496Z,22.47
2018-03-15T05:02:56.730Z,24.97
2018-03-15T05:05:25.902Z,24.30
2018-03-15T05:07:55.171Z,34.80
2018-03-15T05:10:24.455Z,23.30
2018-03-15T05:12:54.458Z,23.10
2018-03-15T05:15:23.691Z,20.60
2018-03-15T05:17:53.207Z,26.00
2018-03-15T05:20:22.198Z,22.83
2018-03-15T05:22:51.270Z,29.30
2018-03-15T05:25:21.338Z,27.97
2018-03-15T05:27:50.475Z,26.77
2018-03-15T05:30:19.679Z,26.97
2018-03-15T05:32:48.879Z,22.43
2018-03-15T05:35:17.623Z,25.73
2018-03-15T05:37:46.895Z,29.50
2018-03-15T05:40:15.996Z,24.43
2018-03-15T05:42:45.162Z,19.63
2018-03-15T05:45:14.160Z,22.13
2018-03-15T05:47:43.260Z,24.17
2018-03-15T05:50:13.371Z,28.20
2018-03-15T05:52:42.400Z,29.10
2018-03-15T05:55:11.359Z,25.77
2018-03-15T05:57:40.595Z,20.40
2018-03-15T06:00:09.868Z,19.50
2018-03-15T06:02:38.997Z,33.47
2018-03-15T06:05:08.128Z,17.53
2018-03-15T06:07:38.103Z,24.50
2018-03-15T06:10:07.103Z,19.27
2018-03-15T06:12:36.376Z,27.90
2018-03-15T06:15:05.503Z,27.03
2018-03-15T06:17:34.635Z,24.00
2018-03-15T06:20:03.596Z,22.40
2018-03-15T06:22:32.591Z,20.63
2018-03-15T06:25:01.592Z,29.77
2018-03-15T06:27:31.566Z,27.90
2018-03-15T06:30:00.696Z,26.87
2018-03-15T06:32:29.971Z,33.47
2018-03-15T06:34:58.974Z,33.10
2018-03-15T06:37:29.078Z,36.07
2018-03-15T06:39:58.795Z,31.80
2018-03-15T06:42:27.791Z,26.47
2018-03-15T06:44:56.923Z,28.43
2018-03-15T06:47:25.987Z,39.50
2018-03-15T06:49:55.011Z,42.37
2018-03-15T06:52:24.110Z,35.57
2018-03-15T06:54:54.121Z,44.87
2018-03-15T06:57:23.024Z,25.40
2018-03-15T06:59:52.188Z,52.33
2018-03-15T07:02:21.179Z,38.70
2018-03-15T07:04:50.379Z,34.60
2018-03-15T07:07:19.511Z,26.60
2018-03-15T07:09:48.640Z,27.80
2018-03-15T07:12:17.599Z,31.87
2018-03-15T07:14:46.600Z,27.83
2018-03-15T07:17:15.623Z,32.97
2018-03-15T07:19:45.680Z,29.77
2018-03-15T07:22:16.416Z,29.73
2018-03-15T07:24:45.543Z,26.93
2018-03-15T07:27:14.539Z,31.83
2018-03-15T07:29:43.671Z,26.50
2018-03-15T07:32:12.767Z,37.53
2018-03-15T07:34:41.678Z,33.53
2018-03-15T07:37:11.636Z,24.53
2018-03-15T07:39:41.353Z,31.57
2018-03-15T07:42:10.483Z,25.30
2018-03-15T07:44:39.394Z,23.30
2018-03-15T07:47:09.431Z,23.40
2018-03-15T07:49:38.453Z,25.83
2018-03-15T07:52:07.868Z,25.70
2018-03-15T07:54:36.946Z,23.43
2018-03-15T07:57:07.048Z,19.87
2018-03-15T07:59:36.066Z,25.00
2018-03-15T08:02:05.735Z,20.40
2018-03-15T08:04:34.745Z,28.40
2018-03-15T08:07:03.631Z,20.70
2018-03-15T08:09:32.562Z,28.17
2018-03-15T08:12:01.655Z,24.03
2018-03-15T08:14:30.656Z,18.20
2018-03-15T08:16:59.647Z,20.10
2018-03-15T08:19:28.779Z,31.40
2018-03-15T08:21:57.741Z,25.43
2018-03-15T08:24:26.923Z,22.00
2018-03-15T08:26:57.435Z,20.27
2018-03-15T08:29:26.439Z,26.50
2018-03-15T08:31:56.295Z,22.83
2018-03-15T08:34:25.363Z,35.37
2018-03-15T08:36:54.650Z,24.47
2018-03-15T08:39:23.644Z,21.27
2018-03-15T08:41:52.639Z,23.40
2018-03-15T08:44:21.790Z,20.47
2018-03-15T08:46:50.762Z,26.93
2018-03-15T08:49:20.050Z,25.00
2018-03-15T08:51:49.127Z,28.17
2018-03-15T08:54:18.939Z,22.87
2018-03-15T08:56:48.316Z,28.33
2018-03-15T08:59:17.280Z,28.07
2018-03-15T09:01:47.283Z,27.37
2018-03-15T09:04:16.572Z,29.60
2018-03-15T09:06:45.659Z,29.07
2018-03-15T09:09:15.871Z,21.93
2018-03-15T09:11:45.076Z,28.23
2018-03-15T09:14:14.779Z,20.87
2018-03-15T09:16:43.655Z,41.93
2018-03-15T09:19:12.666Z,23.07
2018-03-15T09:21:42.811Z,22.50
2018-03-15T09:24:11.919Z,22.00
2018-03-15T09:26:40.919Z,21.43
2018-03-15T09:29:09.887Z,20.87
2018-03-15T09:31:39.819Z,24.40
2018-03-15T09:34:08.746Z,16.67
2018-03-15T09:36:38.627Z,27.10
2018-03-15T09:39:07.907Z,28.20
2018-03-15T09:41:36.900Z,32.73
2018-03-15T09:44:06.002Z,16.50
2018-03-15T09:46:35.212Z,18.40
2018-03-15T09:49:04.294Z,30.93
2018-03-15T09:51:35.983Z,20.73
2018-03-15T09:54:05.151Z,20.83
2018-03-15T09:56:34.588Z,23.17
2018-03-15T09:59:03.550Z,25.23
2018-03-15T10:01:32.679Z,25.60
2018-03-15T10:04:01.807Z,21.50
2018-03-15T10:06:30.768Z,22.70
2018-03-15T10:08:59.786Z,23.30
2018-03-15T10:11:29.095Z,29.83
2018-03-15T10:13:58.008Z,28.50
2018-03-15T10:16:27.003Z,23.97
2018-03-15T10:18:56.023Z,27.73
2018-03-15T10:21:25.002Z,22.17
2018-03-15T10:23:55.131Z,30.50
2018-03-15T10:26:24.227Z,29.00
2018-03-15T10:28:53.222Z,22.97
2018-03-15T10:31:22.582Z,22.60
2018-03-15T10:33:52.434Z,24.27
2018-03-15T10:36:22.354Z,19.13
2018-03-15T10:38:51.539Z,26.33
2018-03-15T10:41:21.734Z,18.10
2018-03-15T10:43:51.602Z,23.13
2018-03-15T10:46:20.819Z,28.80
2018-03-15T10:48:50.027Z,28.77
2018-03-15T10:51:19.122Z,20.20
2018-03-15T10:53:48.327Z,27.77
2018-03-15T10:56:18.267Z,23.77
2018-03-15T10:58:47.408Z,26.43
2018-03-15T11:01:22.319Z,23.03
2018-03-15T11:03:52.850Z,25.47
2018-03-15T11:06:28.113Z,20.63
2018-03-15T11:08:58.594Z,29.10
2018-03-15T11:11:27.834Z,34.03
2018-03-15T11:13:59.246Z,18.40
2018-03-15T11:16:29.417Z,33.03
2018-03-15T11:18:59.430Z,25.57
2018-03-15T11:21:28.555Z,19.93
2018-03-15T11:23:57.714Z,21.87
2018-03-15T11:26:26.818Z,21.93
2018-03-15T11:28:56.479Z,28.23
2018-03-15T11:31:26.167Z,18.17
2018-03-15T11:33:55.270Z,19.37
2018-03-15T11:36:24.260Z,29.17
2018-03-15T11:38:53.538Z,25.90
2018-03-15T11:41:22.626Z,21.57
2018-03-15T11:43:51.762Z,27.70
2018-03-15T11:46:20.995Z,29.33
2018-03-15T11:48:50.875Z,21.43
2018-03-15T11:51:20.047Z,22.90
2018-03-15T11:53:49.342Z,36.13
2018-03-15T11:56:18.506Z,28.47
2018-03-15T11:58:47.470Z,17.17
2018-03-15T12:01:17.560Z,20.93
2018-03-15T12:03:47.561Z,26.83
2018-03-15T12:06:16.901Z,24.83
2018-03-15T12:08:45.999Z,21.37
2018-03-15T12:11:15.383Z,30.67
2018-03-15T12:13:44.479Z,34.07
2018-03-15T12:16:13.658Z,26.13
2018-03-15T12:18:42.703Z,31.73
2018-03-15T12:21:11.710Z,24.50
2018-03-15T12:23:40.694Z,21.57
2018-03-15T12:26:09.919Z,18.23
2018-03-15T12:28:38.850Z,16.30
2018-03-15T12:31:07.779Z,24.40
2018-03-15T12:33:36.907Z,22.00
2018-03-15T12:36:05.871Z,17.37
2018-03-15T12:38:34.867Z,23.03
2018-03-15T12:41:04.546Z,25.77
2018-03-15T12:43:33.594Z,27.93
2018-03-15T12:46:02.806Z,23.87
2018-03-15T12:48:32.067Z,23.97
2018-03-15T12:51:01.343Z,16.97
2018-03-15T12:53:30.444Z,19.07
2018-03-15T12:55:59.435Z,21.17
2018-03-15T12:58:28.771Z,15.60
2018-03-15T13:00:57.659Z,22.97
2018-03-15T13:03:26.723Z,18.10
2018-03-15T13:05:56.767Z,16.50
2018-03-15T13:08:25.878Z,12.20
2018-03-15T13:10:54.959Z,23.63
2018-03-15T13:13:24.235Z,26.67
2018-03-15T13:15:54.350Z,20.13
2018-03-15T13:18:23.479Z,20.60
2018-03-15T13:20:53.269Z,26.50
2018-03-15T13:23:22.245Z,34.60
2018-03-15T13:25:52.279Z,19.80
2018-03-15T13:28:21.533Z,26.90
2018-03-15T13:30:50.783Z,26.03
2018-03-15T13:33:21.228Z,19.33
2018-03-15T13:35:51.155Z,23.87
2018-03-15T13:38:20.691Z,23.60
2018-03-15T13:40:49.995Z,22.37
2018-03-15T13:43:19.141Z,17.63
2018-03-15T13:45:48.338Z,23.43
2018-03-15T13:48:17.567Z,22.10
2018-03-15T13:50:46.691Z,23.03
2018-03-15T13:53:15.791Z,32.70
2018-03-15T13:55:44.754Z,24.90
2018-03-15T13:58:13.747Z,26.57
2018-03-15T14:00:42.942Z,24.10
2018-03-15T14:03:11.943Z,27.63
2018-03-15T14:05:41.092Z,25.70
2018-03-15T14:08:10.098Z,25.60
2018-03-15T14:10:39.616Z,23.63
2018-03-15T14:13:08.803Z,30.57
2018-03-15T14:15:39.445Z,26.97
2018-03-15T14:18:08.468Z,24.27
2018-03-15T14:20:37.314Z,30.37
2018-03-15T14:23:07.143Z,20.77
2018-03-15T14:25:36.199Z,21.80
2018-03-15T14:28:05.163Z,20.53
2018-03-15T14:30:34.154Z,32.70
2018-03-15T14:33:03.423Z,19.10
2018-03-15T14:35:32.684Z,23.37
2018-03-15T14:38:01.885Z,22.43
2018-03-15T14:40:31.019Z,22.10
2018-03-15T14:43:00.432Z,36.43
2018-03-15T14:45:30.244Z,17.73
2018-03-15T14:47:59.127Z,27.60
2018-03-15T14:50:28.055Z,25.73
2018-03-15T14:52:57.156Z,26.73
2018-03-15T14:55:26.119Z,22.27
2018-03-15T14:57:55.090Z,26.67
2018-03-15T15:00:24.244Z,30.57
2018-03-15T15:02:53.239Z,27.00
2018-03-15T15:05:22.123Z,20.13
2018-03-15T15:07:51.327Z,22.63
2018-03-15T15:10:21.239Z,28.13
2018-03-15T15:12:50.897Z,29.33
2018-03-15T15:15:19.922Z,22.63
2018-03-15T15:17:49.968Z,27.60
2018-03-15T15:20:19.060Z,21.37
2018-03-15T15:22:48.155Z,23.83
2018-03-15T15:25:17.439Z,25.80
2018-03-15T15:27:47.307Z,21.77
2018-03-15T15:30:16.442Z,26.00
2018-03-15T15:32:45.744Z,34.20
2018-03-15T15:35:14.736Z,28.80
2018-03-15T15:37:43.952Z,25.47
2018-03-15T15:40:13.086Z,32.33
2018-03-15T15:42:42.136Z,23.87
2018-03-15T15:45:11.340Z,30.33
2018-03-15T15:47:41.380Z,30.37
2018-03-15T15:50:10.476Z,28.77
2018-03-15T15:52:40.146Z,24.90
2018-03-15T15:55:10.111Z,31.00
2018-03-15T15:57:39.379Z,28.07
2018-03-15T16:00:08.410Z,34.83
2018-03-15T16:02:37.405Z,29.60
2018-03-15T16:05:06.811Z,26.20
2018-03-15T16:07:35.754Z,26.13
2018-03-15T16:10:05.787Z,37.17
2018-03-15T16:12:35.738Z,38.13
2018-03-15T16:15:05.102Z,20.97
2018-03-15T16:17:34.202Z,28.50
2018-03-15T16:20:03.297Z,28.23
2018-03-15T16:22:33.188Z,37.10
2018-03-15T16:25:03.133Z,28.47
2018-03-15T16:27:32.723Z,29.03
2018-03-15T16:30:01.804Z,29.20
2018-03-15T16:32:30.708Z,34.37
2018-03-15T16:35:01.296Z,25.80
2018-03-15T16:37:30.423Z,30.30
2018-03-15T16:40:00.269Z,34.50
2018-03-15T16:42:29.947Z,27.13
2018-03-15T16:44:59.756Z,34.13
2018-03-15T16:47:28.891Z,34.40
2018-03-15T16:49:58.091Z,21.77
2018-03-15T16:52:27.295Z,30.27
2018-03-15T16:54:56.895Z,27.00
2018-03-15T16:57:25.963Z,28.40
2018-03-15T16:59:54.991Z,24.20
2018-03-15T17:02:23.886Z,30.93
2018-03-15T17:04:53.829Z,25.70
2018-03-15T17:07:23.502Z,27.23
2018-03-15T17:09:52.575Z,34.27
2018-03-15T17:12:22.420Z,27.97
2018-03-15T17:14:51.549Z,25.93
2018-03-15T17:17:20.440Z,26.80
2018-03-15T17:19:49.737Z,33.50
2018-03-15T17:22:19.717Z,32.33
2018-03-15T17:24:49.611Z,21.53
2018-03-15T17:27:18.678Z,31.90
2018-03-15T17:29:47.739Z,30.23
2018-03-15T17:32:16.870Z,36.50
2018-03-15T17:34:45.935Z,35.50
2018-03-15T17:37:15.907Z,29.30
2018-03-15T17:39:44.903Z,38.20
2018-03-15T17:42:14.004Z,27.77
2018-03-15T17:44:43.135Z,33.17
2018-03-15T17:47:12.159Z,36.77
2018-03-15T17:49:41.948Z,38.27
2018-03-15T17:52:11.029Z,33.37
2018-03-15T17:54:40.227Z,33.03
2018-03-15T17:57:09.124Z,35.10
2018-03-15T17:59:38.014Z,23.80
2018-03-15T18:02:07.089Z,27.80
2018-03-15T18:04:36.094Z,24.30
2018-03-15T18:07:05.047Z,29.73
2018-03-15T18:09:34.247Z,24.77
2018-03-15T18:12:03.239Z,30.97
2018-03-15T18:14:32.272Z,32.03
2018-03-15T18:17:01.195Z,23.63
2018-03-15T18:19:30.328Z,32.80
2018-03-15T18:21:59.320Z,23.97
2018-03-15T18:24:28.460Z,27.77
2018-03-15T18:26:57.547Z,38.43
2018-03-15T18:29:27.395Z,27.83
2018-03-15T18:31:57.243Z,35.30
2018-03-15T18:34:26.338Z,28.93
2018-03-15T18:36:55.439Z,26.60
2018-03-15T18:39:24.504Z,35.53
2018-03-15T18:41:54.523Z,35.00
2018-03-15T18:44:23.514Z,40.87
2018-03-15T18:46:52.435Z,41.83
2018-03-15T18:49:21.508Z,34.77
2018-03-15T18:51:50.606Z,39.33
2018-03-15T18:54:22.276Z,38.10
2018-03-15T18:56:51.416Z,35.87
2018-03-15T18:59:20.551Z,34.53
2018-03-15T19:01:49.854Z,32.63
2018-03-15T19:04:19.050Z,29.33
2018-03-15T19:06:48.055Z,43.67
2018-03-15T19:09:17.179Z,35.07
2018-03-15T19:11:47.163Z,37.53
2018-03-15T19:14:16.403Z,35.83
2018-03-15T19:16:45.671Z,41.30
2018-03-15T19:19:14.867Z,41.30
2018-03-15T19:21:43.890Z,32.47
2018-03-15T19:24:13.123Z,33.87
2018-03-15T19:26:42.869Z,28.77
2018-03-15T19:29:12.615Z,32.97
2018-03-15T19:31:41.611Z,40.13
2018-03-15T19:34:10.695Z,31.37
2018-03-15T19:36:39.703Z,33.20
2018-03-15T19:39:08.699Z,43.03
2018-03-15T19:41:37.827Z,36.53
2018-03-15T19:44:06.820Z,32.00
2018-03-15T19:46:36.567Z,26.83
2018-03-15T19:49:05.695Z,33.27
2018-03-15T19:51:34.974Z,37.97
2018-03-15T19:54:04.167Z,45.90
2018-03-15T19:56:33.312Z,34.30
2018-03-15T19:59:02.475Z,34.60
2018-03-15T20:01:31.386Z,33.63
2018-03-15T20:04:00.514Z,32.57
2018-03-15T20:06:30.364Z,48.93
2018-03-15T20:08:59.463Z,33.63
2018-03-15T20:11:28.667Z,44.03
2018-03-15T20:13:57.730Z,34.97
2018-03-15T20:16:26.891Z,38.07
2018-03-15T20:19:13.451Z,43.70
2018-03-15T20:21:43.518Z,38.23
2018-03-15T20:24:18.334Z,36.43
2018-03-15T20:26:47.414Z,35.43
2018-03-15T20:29:16.406Z,44.83
2018-03-15T20:31:45.609Z,31.50
2018-03-15T20:34:14.603Z,39.00
2018-03-15T20:36:43.899Z,36.93
2018-03-15T20:39:18.759Z,44.13
2018-03-15T20:41:47.843Z,47.10
2018-03-15T20:44:17.807Z,34.83
2018-03-15T20:49:50.251Z,40.77
2018-03-15T20:52:20.983Z,42.73
2018-03-15T20:54:50.810Z,54.97
2018-03-15T20:57:20.742Z,40.53
2018-03-15T20:59:49.639Z,31.40
2018-03-15T21:02:18.765Z,39.03
2018-03-15T21:04:47.728Z,45.80
2018-03-15T21:07:16.619Z,47.23
2018-03-15T21:09:45.715Z,37.23
2018-03-15T21:12:14.825Z,40.00
2018-03-15T21:14:43.942Z,49.20
2018-03-15T21:17:12.908Z,39.93
2018-03-15T21:19:42.033Z,45.13
2018-03-15T21:22:10.944Z,44.90
2018-03-15T21:24:40.909Z,46.17
2018-03-15T21:27:09.943Z,49.87
2018-03-15T21:29:39.671Z,53.80
2018-03-15T21:32:08.580Z,50.90
2018-03-15T21:34:37.711Z,54.90
2018-03-15T21:37:06.879Z,48.90
2018-03-15T21:39:35.761Z,50.53
2018-03-15T21:42:04.695Z,49.47
2018-03-15T21:44:33.927Z,50.00
2018-03-15T21:47:02.843Z,34.50
2018-03-15T21:49:31.683Z,51.50
2018-03-15T21:52:00.775Z,43.63
2018-03-15T21:54:29.821Z,70.03
2018-03-15T21:56:58.987Z,52.60
2018-03-15T21:59:27.823Z,61.10
2018-03-15T22:01:56.750Z,57.53
2018-03-15T22:04:25.874Z,52.43
2018-03-15T22:06:55.628Z,47.70
2018-03-15T22:09:24.831Z,61.43
2018-03-15T22:11:54.027Z,58.47
2018-03-15T22:14:23.126Z,48.07
2018-03-15T22:16:53.244Z,46.40
2018-03-15T22:19:22.271Z,46.57
2018-03-15T22:21:51.935Z,62.87
2018-03-15T22:24:21.116Z,56.40
2018-03-15T22:26:50.022Z,45.23
2018-03-15T22:29:19.783Z,43.80
2018-03-15T22:31:49.563Z,54.30
2018-03-15T22:34:18.711Z,49.17
2018-03-15T22:36:47.642Z,57.30
2018-03-15T22:39:16.654Z,38.07
2018-03-15T22:41:45.575Z,39.23
2018-03-15T22:44:14.470Z,49.87
2018-03-15T22:46:43.730Z,46.23
2018-03-15T22:49:12.563Z,43.33
2018-03-15T22:51:41.695Z,48.73
2018-03-15T22:54:10.655Z,62.27
2018-03-15T22:56:39.784Z,61.50
2018-03-15T22:59:08.692Z,47.33
2018-03-15T23:01:38.559Z,43.73
2018-03-15T23:04:07.751Z,45.60
2018-03-15T23:06:37.218Z,48.20
2018-03-15T23:09:07.251Z,52.13
2018-03-15T23:11:36.271Z,51.53
2018-03-15T23:14:06.075Z,62.67
2018-03-15T23:16:35.033Z,51.57
2018-03-15T23:19:05.679Z,51.60
2018-03-15T23:21:34.561Z,52.87
2018-03-15T23:24:03.640Z,46.37
2018-03-15T23:26:33.487Z,52.43
2018-03-15T23:29:02.611Z,52.87
2018-03-15T23:31:31.687Z,51.07
2018-03-15T23:34:00.706Z,60.03
2018-03-15T23:36:29.983Z,52.13
2018-03-15T23:38:58.969Z,46.40
2018-03-15T23:41:28.207Z,60.17
2018-03-15T23:43:57.229Z,44.97
2018-03-15T23:46:27.591Z,55.30
2018-03-15T23:48:56.686Z,51.20
2018-03-15T23:51:26.811Z,58.53
2018-03-15T23:53:55.836Z,61.00
2018-03-15T23:56:24.788Z,60.93
2018-03-15T23:58:55.187Z,61.03
